sensor_id;sensor_type;location;lat;lon;timestamp;temperature;humidity
17567;DHT22;8901;52.088;5.084;2022-09-09T00:01:01;20.50;99.90
17567;DHT22;8901;52.088;5.084;2022-09-09T00:03:34;20.50;99.90
17567;DHT22;8901;52.088;5.084;2022-09-09T00:06:10;20.60;99.90
17567;DHT22;8901;52.088;5.084;2022-09-09T00:08:45;20.50;99.90
17567;DHT22;8901;52.088;5.084;2022-09-09T00:11:23;20.70;99.90
17567;DHT22;8901;52.088;5.084;2022-09-09T00:13:53;20.70;99.90
17567;DHT22;8901;52.088;5.084;2022-09-09T00:16:25;20.80;99.90
17567;DHT22;8901;52.088;5.084;2022-09-09T00:19:00;20.90;99.90
17567;DHT22;8901;52.088;5.084;2022-09-09T00:21:33;20.90;99.90
17567;DHT22;8901;52.088;5.084;2022-09-09T00:24:10;20.90;99.90
17567;DHT22;8901;52.088;5.084;2022-09-09T00:26:42;20.90;99.90
17567;DHT22;8901;52.088;5.084;2022-09-09T00:29:18;20.50;99.90
17567;DHT22;8901;52.088;5.084;2022-09-09T00:31:48;20.40;99.90
17567;DHT22;8901;52.088;5.084;2022-09-09T00:34:19;20.70;99.90
17567;DHT22;8901;52.088;5.084;2022-09-09T00:36:48;20.60;99.90
17567;DHT22;8901;52.088;5.084;2022-09-09T00:39:27;20.60;99.90
17567;DHT22;8901;52.088;5.084;2022-09-09T00:42:05;20.80;99.90
17567;DHT22;8901;52.088;5.084;2022-09-09T00:44:37;20.60;99.90
17567;DHT22;8901;52.088;5.084;2022-09-09T00:47:17;20.80;99.90
17567;DHT22;8901;52.088;5.084;2022-09-09T00:49:56;20.70;99.90
17567;DHT22;8901;52.088;5.084;2022-09-09T00:52:32;20.50;99.90
17567;DHT22;8901;52.088;5.084;2022-09-09T00:55:11;20.50;99.90
17567;DHT22;8901;52.088;5.084;2022-09-09T00:57:41;20.40;99.90
17567;DHT22;8901;52.088;5.084;2022-09-09T01:00:22;20.60;99.90
17567;DHT22;8901;52.088;5.084;2022-09-09T01:03:17;20.50;99.90
17567;DHT22;8901;52.088;5.084;2022-09-09T01:05:53;20.60;99.90
17567;DHT22;8901;52.088;5.084;2022-09-09T01:08:32;20.40;99.90
17567;DHT22;8901;52.088;5.084;2022-09-09T01:11:10;20.40;99.90
17567;DHT22;8901;52.088;5.084;2022-09-09T01:13:42;20.60;99.90
17567;DHT22;8901;52.088;5.084;2022-09-09T01:16:13;20.10;99.90
17567;DHT22;8901;52.088;5.084;2022-09-09T01:18:44;20.30;99.90
17567;DHT22;8901;52.088;5.084;2022-09-09T01:21:19;20.20;99.90
17567;DHT22;8901;52.088;5.084;2022-09-09T01:24:08;20.10;99.90
17567;DHT22;8901;52.088;5.084;2022-09-09T01:26:42;20.40;99.90
17567;DHT22;8901;52.088;5.084;2022-09-09T01:29:11;20.50;99.90
17567;DHT22;8901;52.088;5.084;2022-09-09T01:31:41;20.40;99.90
17567;DHT22;8901;52.088;5.084;2022-09-09T01:34:10;20.50;99.90
17567;DHT22;8901;52.088;5.084;2022-09-09T01:36:40;20.60;99.90
17567;DHT22;8901;52.088;5.084;2022-09-09T01:39:09;20.40;99.90
17567;DHT22;8901;52.088;5.084;2022-09-09T01:41:36;20.50;99.90
17567;DHT22;8901;52.088;5.084;2022-09-09T01:44:05;20.60;99.90
17567;DHT22;8901;52.088;5.084;2022-09-09T01:46:32;20.60;99.90
17567;DHT22;8901;52.088;5.084;2022-09-09T01:49:00;20.70;99.90
17567;DHT22;8901;52.088;5.084;2022-09-09T01:51:28;20.80;99.90
17567;DHT22;8901;52.088;5.084;2022-09-09T01:53:56;20.90;99.90
17567;DHT22;8901;52.088;5.084;2022-09-09T01:56:32;20.90;99.90
17567;DHT22;8901;52.088;5.084;2022-09-09T01:59:11;20.70;99.90
17567;DHT22;8901;52.088;5.084;2022-09-09T02:01:49;20.80;99.90
17567;DHT22;8901;52.088;5.084;2022-09-09T02:04:31;20.50;99.90
17567;DHT22;8901;52.088;5.084;2022-09-09T02:07:01;20.60;99.90
17567;DHT22;8901;52.088;5.084;2022-09-09T02:09:29;20.80;99.90
17567;DHT22;8901;52.088;5.084;2022-09-09T02:12:04;20.70;99.90
17567;DHT22;8901;52.088;5.084;2022-09-09T02:14:36;20.60;99.90
17567;DHT22;8901;52.088;5.084;2022-09-09T02:17:09;20.70;99.90
17567;DHT22;8901;52.088;5.084;2022-09-09T02:19:39;20.90;99.90
17567;DHT22;8901;52.088;5.084;2022-09-09T02:22:07;20.80;99.90
17567;DHT22;8901;52.088;5.084;2022-09-09T02:24:37;21.00;99.90
17567;DHT22;8901;52.088;5.084;2022-09-09T02:27:06;20.80;99.90
17567;DHT22;8901;52.088;5.084;2022-09-09T02:29:38;20.60;99.90
17567;DHT22;8901;52.088;5.084;2022-09-09T02:32:07;20.70;99.90
17567;DHT22;8901;52.088;5.084;2022-09-09T02:34:37;20.40;99.90
17567;DHT22;8901;52.088;5.084;2022-09-09T02:37:07;20.40;99.90
17567;DHT22;8901;52.088;5.084;2022-09-09T02:39:34;20.50;99.90
17567;DHT22;8901;52.088;5.084;2022-09-09T02:42:02;20.40;99.90
17567;DHT22;8901;52.088;5.084;2022-09-09T02:44:30;20.40;99.90
17567;DHT22;8901;52.088;5.084;2022-09-09T02:47:10;20.70;99.90
17567;DHT22;8901;52.088;5.084;2022-09-09T02:49:47;20.70;99.90
17567;DHT22;8901;52.088;5.084;2022-09-09T02:52:20;20.80;99.90
17567;DHT22;8901;52.088;5.084;2022-09-09T02:54:51;20.80;99.90
17567;DHT22;8901;52.088;5.084;2022-09-09T02:57:25;20.50;99.90
17567;DHT22;8901;52.088;5.084;2022-09-09T02:59:57;20.40;99.90
17567;DHT22;8901;52.088;5.084;2022-09-09T03:02:27;20.60;99.90
17567;DHT22;8901;52.088;5.084;2022-09-09T03:04:54;20.40;99.90
17567;DHT22;8901;52.088;5.084;2022-09-09T03:07:21;20.70;99.90
17567;DHT22;8901;52.088;5.084;2022-09-09T03:09:48;20.80;99.90
17567;DHT22;8901;52.088;5.084;2022-09-09T03:12:15;21.00;99.90
17567;DHT22;8901;52.088;5.084;2022-09-09T03:14:42;20.90;99.90
17567;DHT22;8901;52.088;5.084;2022-09-09T03:17:10;20.90;99.90
17567;DHT22;8901;52.088;5.084;2022-09-09T03:19:39;20.80;99.90
17567;DHT22;8901;52.088;5.084;2022-09-09T03:22:06;20.90;99.90
17567;DHT22;8901;52.088;5.084;2022-09-09T03:24:35;21.00;99.90
17567;DHT22;8901;52.088;5.084;2022-09-09T03:27:02;20.90;99.90
17567;DHT22;8901;52.088;5.084;2022-09-09T03:30:04;20.90;99.90
17567;DHT22;8901;52.088;5.084;2022-09-09T03:32:31;20.80;99.90
17567;DHT22;8901;52.088;5.084;2022-09-09T03:35:00;20.80;99.90
17567;DHT22;8901;52.088;5.084;2022-09-09T03:37:27;20.80;99.90
17567;DHT22;8901;52.088;5.084;2022-09-09T03:39:53;20.80;99.90
17567;DHT22;8901;52.088;5.084;2022-09-09T03:42:21;20.70;99.90
17567;DHT22;8901;52.088;5.084;2022-09-09T03:44:48;20.70;99.90
17567;DHT22;8901;52.088;5.084;2022-09-09T03:47:17;20.70;99.90
17567;DHT22;8901;52.088;5.084;2022-09-09T03:49:45;20.50;99.90
17567;DHT22;8901;52.088;5.084;2022-09-09T03:52:15;20.50;99.90
17567;DHT22;8901;52.088;5.084;2022-09-09T03:54:42;20.70;99.90
17567;DHT22;8901;52.088;5.084;2022-09-09T03:57:09;20.50;99.90
17567;DHT22;8901;52.088;5.084;2022-09-09T04:03:09;20.50;99.90
17567;DHT22;8901;52.088;5.084;2022-09-09T04:05:36;20.40;99.90
17567;DHT22;8901;52.088;5.084;2022-09-09T04:08:06;20.10;99.90
17567;DHT22;8901;52.088;5.084;2022-09-09T04:10:33;20.20;99.90
17567;DHT22;8901;52.088;5.084;2022-09-09T04:13:02;20.30;99.90
17567;DHT22;8901;52.088;5.084;2022-09-09T04:16:04;20.50;99.90
17567;DHT22;8901;52.088;5.084;2022-09-09T04:18:31;20.50;99.90
17567;DHT22;8901;52.088;5.084;2022-09-09T04:21:18;20.10;99.90
17567;DHT22;8901;52.088;5.084;2022-09-09T04:23:47;20.10;99.90
17567;DHT22;8901;52.088;5.084;2022-09-09T04:26:13;20.20;99.90
17567;DHT22;8901;52.088;5.084;2022-09-09T04:28:40;20.00;99.90
17567;DHT22;8901;52.088;5.084;2022-09-09T04:31:14;20.40;99.90
17567;DHT22;8901;52.088;5.084;2022-09-09T04:33:42;20.10;99.90
17567;DHT22;8901;52.088;5.084;2022-09-09T04:36:09;20.40;99.90
17567;DHT22;8901;52.088;5.084;2022-09-09T04:38:36;20.20;99.90
17567;DHT22;8901;52.088;5.084;2022-09-09T04:41:05;20.50;99.90
17567;DHT22;8901;52.088;5.084;2022-09-09T04:43:32;20.70;99.90
17567;DHT22;8901;52.088;5.084;2022-09-09T04:45:59;20.30;99.90
17567;DHT22;8901;52.088;5.084;2022-09-09T04:48:26;20.50;99.90
17567;DHT22;8901;52.088;5.084;2022-09-09T04:50:55;20.30;99.90
17567;DHT22;8901;52.088;5.084;2022-09-09T04:53:22;20.10;99.90
17567;DHT22;8901;52.088;5.084;2022-09-09T04:55:51;20.20;99.90
17567;DHT22;8901;52.088;5.084;2022-09-09T04:58:20;20.10;99.90
17567;DHT22;8901;52.088;5.084;2022-09-09T05:00:49;19.90;99.90
17567;DHT22;8901;52.088;5.084;2022-09-09T05:03:17;20.10;99.90
17567;DHT22;8901;52.088;5.084;2022-09-09T05:05:44;20.30;99.90
17567;DHT22;8901;52.088;5.084;2022-09-09T05:08:11;19.80;99.90
17567;DHT22;8901;52.088;5.084;2022-09-09T05:10:38;20.00;99.90
17567;DHT22;8901;52.088;5.084;2022-09-09T05:13:07;20.20;99.90
17567;DHT22;8901;52.088;5.084;2022-09-09T05:15:35;20.40;99.90
17567;DHT22;8901;52.088;5.084;2022-09-09T05:18:02;20.40;99.90
17567;DHT22;8901;52.088;5.084;2022-09-09T05:20:29;20.20;99.90
17567;DHT22;8901;52.088;5.084;2022-09-09T05:22:57;20.20;99.90
17567;DHT22;8901;52.088;5.084;2022-09-09T05:25:24;20.10;99.90
17567;DHT22;8901;52.088;5.084;2022-09-09T05:27:51;20.10;99.90
17567;DHT22;8901;52.088;5.084;2022-09-09T05:30:19;20.20;99.90
17567;DHT22;8901;52.088;5.084;2022-09-09T05:32:47;20.00;99.90
17567;DHT22;8901;52.088;5.084;2022-09-09T05:35:14;19.80;99.90
17567;DHT22;8901;52.088;5.084;2022-09-09T05:37:41;19.70;99.90
17567;DHT22;8901;52.088;5.084;2022-09-09T05:40:09;19.50;99.90
17567;DHT22;8901;52.088;5.084;2022-09-09T05:42:36;19.90;99.90
17567;DHT22;8901;52.088;5.084;2022-09-09T05:45:05;19.70;99.90
17567;DHT22;8901;52.088;5.084;2022-09-09T05:47:33;19.80;99.90
17567;DHT22;8901;52.088;5.084;2022-09-09T05:50:01;19.80;99.90
17567;DHT22;8901;52.088;5.084;2022-09-09T05:52:28;19.80;99.90
17567;DHT22;8901;52.088;5.084;2022-09-09T05:54:54;19.90;99.90
17567;DHT22;8901;52.088;5.084;2022-09-09T05:57:22;19.70;99.90
17567;DHT22;8901;52.088;5.084;2022-09-09T05:59:49;20.00;99.90
17567;DHT22;8901;52.088;5.084;2022-09-09T06:02:16;20.00;99.90
17567;DHT22;8901;52.088;5.084;2022-09-09T06:04:43;19.90;99.90
17567;DHT22;8901;52.088;5.084;2022-09-09T06:07:11;19.60;99.90
17567;DHT22;8901;52.088;5.084;2022-09-09T06:09:39;19.90;99.90
17567;DHT22;8901;52.088;5.084;2022-09-09T06:12:07;19.60;99.90
17567;DHT22;8901;52.088;5.084;2022-09-09T06:17:34;19.70;99.90
17567;DHT22;8901;52.088;5.084;2022-09-09T06:20:02;19.40;99.90
17567;DHT22;8901;52.088;5.084;2022-09-09T06:22:32;19.50;99.90
17567;DHT22;8901;52.088;5.084;2022-09-09T06:24:59;19.30;99.90
17567;DHT22;8901;52.088;5.084;2022-09-09T06:27:27;19.60;99.90
17567;DHT22;8901;52.088;5.084;2022-09-09T06:29:54;19.80;99.90
17567;DHT22;8901;52.088;5.084;2022-09-09T06:32:21;19.90;99.90
17567;DHT22;8901;52.088;5.084;2022-09-09T06:34:47;19.90;99.90
17567;DHT22;8901;52.088;5.084;2022-09-09T06:37:14;20.10;99.90
17567;DHT22;8901;52.088;5.084;2022-09-09T06:39:42;20.10;99.90
17567;DHT22;8901;52.088;5.084;2022-09-09T06:42:09;20.10;99.90
17567;DHT22;8901;52.088;5.084;2022-09-09T06:44:36;20.00;99.90
17567;DHT22;8901;52.088;5.084;2022-09-09T06:47:03;20.00;99.90
17567;DHT22;8901;52.088;5.084;2022-09-09T06:49:30;19.80;99.90
17567;DHT22;8901;52.088;5.084;2022-09-09T06:51:57;19.90;99.90
17567;DHT22;8901;52.088;5.084;2022-09-09T06:54:24;20.10;99.90
17567;DHT22;8901;52.088;5.084;2022-09-09T06:56:52;20.10;99.90
17567;DHT22;8901;52.088;5.084;2022-09-09T06:59:19;20.10;99.90
17567;DHT22;8901;52.088;5.084;2022-09-09T07:01:46;20.30;99.90
17567;DHT22;8901;52.088;5.084;2022-09-09T07:04:13;20.10;99.90
17567;DHT22;8901;52.088;5.084;2022-09-09T07:06:42;19.90;99.90
17567;DHT22;8901;52.088;5.084;2022-09-09T07:09:11;20.40;99.90
17567;DHT22;8901;52.088;5.084;2022-09-09T07:11:39;20.30;99.90
17567;DHT22;8901;52.088;5.084;2022-09-09T07:14:08;20.40;99.90
17567;DHT22;8901;52.088;5.084;2022-09-09T07:16:38;20.30;99.90
17567;DHT22;8901;52.088;5.084;2022-09-09T07:19:05;20.40;99.90
17567;DHT22;8901;52.088;5.084;2022-09-09T07:21:32;20.80;99.90
17567;DHT22;8901;52.088;5.084;2022-09-09T07:23:59;20.30;99.90
17567;DHT22;8901;52.088;5.084;2022-09-09T07:26:29;20.50;99.90
17567;DHT22;8901;52.088;5.084;2022-09-09T07:28:56;20.50;99.90
17567;DHT22;8901;52.088;5.084;2022-09-09T07:31:26;20.50;99.90
17567;DHT22;8901;52.088;5.084;2022-09-09T07:33:53;20.70;99.90
17567;DHT22;8901;52.088;5.084;2022-09-09T07:36:21;20.70;99.90
17567;DHT22;8901;52.088;5.084;2022-09-09T07:38:50;20.70;99.90
17567;DHT22;8901;52.088;5.084;2022-09-09T07:41:20;20.50;99.90
17567;DHT22;8901;52.088;5.084;2022-09-09T07:43:48;20.70;99.90
17567;DHT22;8901;52.088;5.084;2022-09-09T07:46:17;20.60;99.90
17567;DHT22;8901;52.088;5.084;2022-09-09T07:48:46;20.40;99.90
17567;DHT22;8901;52.088;5.084;2022-09-09T07:51:18;20.60;99.90
17567;DHT22;8901;52.088;5.084;2022-09-09T07:53:45;20.10;99.90
17567;DHT22;8901;52.088;5.084;2022-09-09T07:56:14;20.30;99.90
17567;DHT22;8901;52.088;5.084;2022-09-09T07:58:42;20.40;99.90
17567;DHT22;8901;52.088;5.084;2022-09-09T08:01:14;20.60;99.90
17567;DHT22;8901;52.088;5.084;2022-09-09T08:03:41;20.70;99.90
17567;DHT22;8901;52.088;5.084;2022-09-09T08:06:11;20.50;99.90
17567;DHT22;8901;52.088;5.084;2022-09-09T08:08:39;20.90;99.90
17567;DHT22;8901;52.088;5.084;2022-09-09T08:11:10;20.70;99.90
17567;DHT22;8901;52.088;5.084;2022-09-09T08:13:38;20.40;99.90
17567;DHT22;8901;52.088;5.084;2022-09-09T08:16:07;20.40;99.90
17567;DHT22;8901;52.088;5.084;2022-09-09T08:18:34;20.20;99.90
17567;DHT22;8901;52.088;5.084;2022-09-09T08:21:09;20.20;99.90
17567;DHT22;8901;52.088;5.084;2022-09-09T08:23:39;20.20;99.90
17567;DHT22;8901;52.088;5.084;2022-09-09T08:26:09;20.10;99.90
17567;DHT22;8901;52.088;5.084;2022-09-09T08:28:36;20.10;99.90
17567;DHT22;8901;52.088;5.084;2022-09-09T08:31:10;20.10;99.90
17567;DHT22;8901;52.088;5.084;2022-09-09T08:33:38;20.30;99.90
17567;DHT22;8901;52.088;5.084;2022-09-09T08:36:08;20.10;99.90
17567;DHT22;8901;52.088;5.084;2022-09-09T08:38:35;20.10;99.90
17567;DHT22;8901;52.088;5.084;2022-09-09T08:41:16;19.90;99.90
17567;DHT22;8901;52.088;5.084;2022-09-09T08:43:46;20.00;99.90
17567;DHT22;8901;52.088;5.084;2022-09-09T08:46:20;20.10;99.90
17567;DHT22;8901;52.088;5.084;2022-09-09T08:48:56;20.20;99.90
17567;DHT22;8901;52.088;5.084;2022-09-09T08:51:26;20.00;99.90
17567;DHT22;8901;52.088;5.084;2022-09-09T08:53:54;20.10;99.90
17567;DHT22;8901;52.088;5.084;2022-09-09T08:56:25;20.10;99.90
17567;DHT22;8901;52.088;5.084;2022-09-09T08:58:55;20.20;99.90
17567;DHT22;8901;52.088;5.084;2022-09-09T09:01:35;20.20;99.90
17567;DHT22;8901;52.088;5.084;2022-09-09T09:04:15;20.20;99.90
17567;DHT22;8901;52.088;5.084;2022-09-09T09:06:53;20.00;99.90
17567;DHT22;8901;52.088;5.084;2022-09-09T09:09:23;19.80;99.90
17567;DHT22;8901;52.088;5.084;2022-09-09T09:11:58;20.10;99.90
17567;DHT22;8901;52.088;5.084;2022-09-09T09:14:28;20.30;99.90
17567;DHT22;8901;52.088;5.084;2022-09-09T09:16:58;20.10;99.90
17567;DHT22;8901;52.088;5.084;2022-09-09T09:19:27;20.00;99.90
17567;DHT22;8901;52.088;5.084;2022-09-09T09:22:00;20.00;99.90
17567;DHT22;8901;52.088;5.084;2022-09-09T09:24:41;20.20;99.90
17567;DHT22;8901;52.088;5.084;2022-09-09T09:27:15;20.30;99.90
17567;DHT22;8901;52.088;5.084;2022-09-09T09:29:43;20.30;99.90
17567;DHT22;8901;52.088;5.084;2022-09-09T09:32:14;20.30;99.90
17567;DHT22;8901;52.088;5.084;2022-09-09T09:34:48;20.20;99.90
17567;DHT22;8901;52.088;5.084;2022-09-09T09:37:23;20.10;99.90
17567;DHT22;8901;52.088;5.084;2022-09-09T09:39:53;20.00;99.90
17567;DHT22;8901;52.088;5.084;2022-09-09T09:42:22;20.30;99.90
17567;DHT22;8901;52.088;5.084;2022-09-09T09:44:50;20.20;99.90
17567;DHT22;8901;52.088;5.084;2022-09-09T09:47:19;20.20;99.90
17567;DHT22;8901;52.088;5.084;2022-09-09T09:49:52;20.20;99.90
17567;DHT22;8901;52.088;5.084;2022-09-09T09:52:23;20.10;99.90
17567;DHT22;8901;52.088;5.084;2022-09-09T09:54:52;20.30;99.90
17567;DHT22;8901;52.088;5.084;2022-09-09T09:57:25;20.30;99.90
17567;DHT22;8901;52.088;5.084;2022-09-09T10:00:03;20.30;99.90
17567;DHT22;8901;52.088;5.084;2022-09-09T10:02:38;20.10;99.90
17567;DHT22;8901;52.088;5.084;2022-09-09T10:05:13;20.20;99.90
17567;DHT22;8901;52.088;5.084;2022-09-09T10:07:40;20.00;99.90
17567;DHT22;8901;52.088;5.084;2022-09-09T10:10:13;20.00;99.90
17567;DHT22;8901;52.088;5.084;2022-09-09T10:12:52;20.30;99.90
17567;DHT22;8901;52.088;5.084;2022-09-09T10:15:32;20.50;99.90
17567;DHT22;8901;52.088;5.084;2022-09-09T10:18:12;20.10;99.90
17567;DHT22;8901;52.088;5.084;2022-09-09T10:20:47;20.10;99.90
17567;DHT22;8901;52.088;5.084;2022-09-09T10:23:29;20.10;99.90
17567;DHT22;8901;52.088;5.084;2022-09-09T10:26:16;20.40;99.90
17567;DHT22;8901;52.088;5.084;2022-09-09T10:29:02;20.20;99.90
17567;DHT22;8901;52.088;5.084;2022-09-09T10:31:39;20.20;99.90
17567;DHT22;8901;52.088;5.084;2022-09-09T10:34:19;20.40;99.90
17567;DHT22;8901;52.088;5.084;2022-09-09T10:36:48;20.40;99.90
17567;DHT22;8901;52.088;5.084;2022-09-09T10:39:31;20.50;99.90
17567;DHT22;8901;52.088;5.084;2022-09-09T10:42:05;20.60;99.90
17567;DHT22;8901;52.088;5.084;2022-09-09T10:44:47;20.70;99.90
17567;DHT22;8901;52.088;5.084;2022-09-09T10:47:41;20.50;99.90
17567;DHT22;8901;52.088;5.084;2022-09-09T10:50:23;20.50;99.90
17567;DHT22;8901;52.088;5.084;2022-09-09T10:52:56;20.50;99.90
17567;DHT22;8901;52.088;5.084;2022-09-09T10:55:33;20.50;99.90
17567;DHT22;8901;52.088;5.084;2022-09-09T10:58:03;20.70;99.90
17567;DHT22;8901;52.088;5.084;2022-09-09T11:00:40;20.40;99.90
17567;DHT22;8901;52.088;5.084;2022-09-09T11:03:15;20.30;99.90
17567;DHT22;8901;52.088;5.084;2022-09-09T11:05:48;20.40;99.90
17567;DHT22;8901;52.088;5.084;2022-09-09T11:08:19;20.40;99.90
17567;DHT22;8901;52.088;5.084;2022-09-09T11:10:51;20.50;99.90
17567;DHT22;8901;52.088;5.084;2022-09-09T11:13:24;20.50;99.90
17567;DHT22;8901;52.088;5.084;2022-09-09T11:15:58;20.40;99.90
17567;DHT22;8901;52.088;5.084;2022-09-09T11:18:29;20.40;99.90
17567;DHT22;8901;52.088;5.084;2022-09-09T11:21:00;20.40;99.90
17567;DHT22;8901;52.088;5.084;2022-09-09T11:23:36;20.40;99.90
17567;DHT22;8901;52.088;5.084;2022-09-09T11:26:06;20.50;99.90
17567;DHT22;8901;52.088;5.084;2022-09-09T11:28:46;20.50;99.90
17567;DHT22;8901;52.088;5.084;2022-09-09T11:31:35;20.30;99.90
17567;DHT22;8901;52.088;5.084;2022-09-09T11:34:20;20.10;99.90
17567;DHT22;8901;52.088;5.084;2022-09-09T11:37:22;20.20;99.90
17567;DHT22;8901;52.088;5.084;2022-09-09T11:40:06;20.20;99.90
17567;DHT22;8901;52.088;5.084;2022-09-09T11:42:35;20.40;99.90
17567;DHT22;8901;52.088;5.084;2022-09-09T11:45:10;20.30;99.90
17567;DHT22;8901;52.088;5.084;2022-09-09T11:47:39;20.20;99.90
17567;DHT22;8901;52.088;5.084;2022-09-09T11:50:22;20.00;99.90
17567;DHT22;8901;52.088;5.084;2022-09-09T11:55:59;20.10;99.90
17567;DHT22;8901;52.088;5.084;2022-09-09T11:58:28;20.20;99.90
17567;DHT22;8901;52.088;5.084;2022-09-09T12:00:58;20.10;99.90
17567;DHT22;8901;52.088;5.084;2022-09-09T12:03:40;20.10;99.90
17567;DHT22;8901;52.088;5.084;2022-09-09T12:06:13;20.00;99.90
17567;DHT22;8901;52.088;5.084;2022-09-09T12:08:52;20.10;99.90
17567;DHT22;8901;52.088;5.084;2022-09-09T12:11:28;20.00;99.90
17567;DHT22;8901;52.088;5.084;2022-09-09T12:13:57;20.10;99.90
17567;DHT22;8901;52.088;5.084;2022-09-09T12:16:32;20.20;99.90
17567;DHT22;8901;52.088;5.084;2022-09-09T12:19:06;20.30;99.90
17567;DHT22;8901;52.088;5.084;2022-09-09T12:21:37;20.30;99.90
17567;DHT22;8901;52.088;5.084;2022-09-09T12:24:09;20.30;99.90
17567;DHT22;8901;52.088;5.084;2022-09-09T12:26:41;20.30;99.90
17567;DHT22;8901;52.088;5.084;2022-09-09T12:29:20;20.30;99.90
17567;DHT22;8901;52.088;5.084;2022-09-09T12:31:55;20.40;99.90
17567;DHT22;8901;52.088;5.084;2022-09-09T12:34:39;20.30;99.90
17567;DHT22;8901;52.088;5.084;2022-09-09T12:37:14;20.40;99.90
17567;DHT22;8901;52.088;5.084;2022-09-09T12:39:45;20.50;99.90
17567;DHT22;8901;52.088;5.084;2022-09-09T12:42:17;20.30;99.90
17567;DHT22;8901;52.088;5.084;2022-09-09T12:44:55;20.40;99.90
17567;DHT22;8901;52.088;5.084;2022-09-09T12:47:26;20.40;99.90
17567;DHT22;8901;52.088;5.084;2022-09-09T12:49:56;20.60;99.90
17567;DHT22;8901;52.088;5.084;2022-09-09T12:52:26;20.50;99.90
17567;DHT22;8901;52.088;5.084;2022-09-09T12:55:02;20.40;99.90
17567;DHT22;8901;52.088;5.084;2022-09-09T12:57:34;20.30;99.90
17567;DHT22;8901;52.088;5.084;2022-09-09T13:00:22;20.50;99.90
17567;DHT22;8901;52.088;5.084;2022-09-09T13:02:52;20.60;99.90
17567;DHT22;8901;52.088;5.084;2022-09-09T13:05:22;20.40;99.90
17567;DHT22;8901;52.088;5.084;2022-09-09T13:07:50;20.50;99.90
17567;DHT22;8901;52.088;5.084;2022-09-09T13:10:23;20.60;99.90
17567;DHT22;8901;52.088;5.084;2022-09-09T13:12:52;20.40;99.90
17567;DHT22;8901;52.088;5.084;2022-09-09T13:15:37;20.50;99.90
17567;DHT22;8901;52.088;5.084;2022-09-09T13:18:06;20.60;99.90
17567;DHT22;8901;52.088;5.084;2022-09-09T13:20:39;20.80;99.90
17567;DHT22;8901;52.088;5.084;2022-09-09T13:23:14;20.60;99.90
17567;DHT22;8901;52.088;5.084;2022-09-09T13:25:53;20.60;99.90
17567;DHT22;8901;52.088;5.084;2022-09-09T13:28:21;20.50;99.90
17567;DHT22;8901;52.088;5.084;2022-09-09T13:30:56;20.60;99.90
17567;DHT22;8901;52.088;5.084;2022-09-09T13:33:30;20.60;99.90
17567;DHT22;8901;52.088;5.084;2022-09-09T13:36:01;20.70;99.90
17567;DHT22;8901;52.088;5.084;2022-09-09T13:38:32;20.70;99.90
17567;DHT22;8901;52.088;5.084;2022-09-09T13:41:02;20.60;99.90
17567;DHT22;8901;52.088;5.084;2022-09-09T13:43:31;20.70;99.90
17567;DHT22;8901;52.088;5.084;2022-09-09T13:46:02;20.80;99.90
17567;DHT22;8901;52.088;5.084;2022-09-09T13:48:29;20.90;99.90
17567;DHT22;8901;52.088;5.084;2022-09-09T13:51:01;21.00;99.90
17567;DHT22;8901;52.088;5.084;2022-09-09T13:53:28;20.90;99.90
17567;DHT22;8901;52.088;5.084;2022-09-09T13:56:01;20.80;99.90
17567;DHT22;8901;52.088;5.084;2022-09-09T13:58:28;20.60;99.90
17567;DHT22;8901;52.088;5.084;2022-09-09T14:00:55;20.50;99.90
17567;DHT22;8901;52.088;5.084;2022-09-09T14:03:22;20.60;99.90
17567;DHT22;8901;52.088;5.084;2022-09-09T14:05:52;20.60;99.90
17567;DHT22;8901;52.088;5.084;2022-09-09T14:08:26;20.70;99.90
17567;DHT22;8901;52.088;5.084;2022-09-09T14:10:53;20.70;99.90
17567;DHT22;8901;52.088;5.084;2022-09-09T14:13:21;20.70;99.90
17567;DHT22;8901;52.088;5.084;2022-09-09T14:15:48;20.70;99.90
17567;DHT22;8901;52.088;5.084;2022-09-09T14:18:16;20.70;99.90
17567;DHT22;8901;52.088;5.084;2022-09-09T14:20:49;20.80;99.90
17567;DHT22;8901;52.088;5.084;2022-09-09T14:23:16;20.70;99.90
17567;DHT22;8901;52.088;5.084;2022-09-09T14:25:45;20.70;99.90
17567;DHT22;8901;52.088;5.084;2022-09-09T14:28:13;20.80;99.90
17567;DHT22;8901;52.088;5.084;2022-09-09T14:30:41;20.80;99.90
17567;DHT22;8901;52.088;5.084;2022-09-09T14:33:10;20.70;99.90
17567;DHT22;8901;52.088;5.084;2022-09-09T14:35:38;20.70;99.90
17567;DHT22;8901;52.088;5.084;2022-09-09T14:38:07;20.70;99.90
17567;DHT22;8901;52.088;5.084;2022-09-09T14:40:35;20.80;99.90
17567;DHT22;8901;52.088;5.084;2022-09-09T14:43:03;20.80;99.90
17567;DHT22;8901;52.088;5.084;2022-09-09T14:45:31;20.80;99.90
17567;DHT22;8901;52.088;5.084;2022-09-09T14:47:58;20.80;99.90
17567;DHT22;8901;52.088;5.084;2022-09-09T14:50:25;20.90;99.90
17567;DHT22;8901;52.088;5.084;2022-09-09T14:52:52;20.80;99.90
17567;DHT22;8901;52.088;5.084;2022-09-09T14:55:19;20.70;99.90
17567;DHT22;8901;52.088;5.084;2022-09-09T14:57:46;20.80;99.90
17567;DHT22;8901;52.088;5.084;2022-09-09T15:00:17;20.90;99.90
17567;DHT22;8901;52.088;5.084;2022-09-09T15:02:44;21.00;99.90
17567;DHT22;8901;52.088;5.084;2022-09-09T15:05:10;20.80;99.90
17567;DHT22;8901;52.088;5.084;2022-09-09T15:07:57;20.80;99.90
17567;DHT22;8901;52.088;5.084;2022-09-09T15:10:25;20.80;99.90
17567;DHT22;8901;52.088;5.084;2022-09-09T15:12:55;20.90;99.90
17567;DHT22;8901;52.088;5.084;2022-09-09T15:15:24;20.80;99.90
17567;DHT22;8901;52.088;5.084;2022-09-09T15:17:52;21.00;99.90
17567;DHT22;8901;52.088;5.084;2022-09-09T15:20:20;21.10;99.90
17567;DHT22;8901;52.088;5.084;2022-09-09T15:22:48;21.20;99.90
17567;DHT22;8901;52.088;5.084;2022-09-09T15:25:16;21.30;99.90
17567;DHT22;8901;52.088;5.084;2022-09-09T15:27:43;21.30;99.90
17567;DHT22;8901;52.088;5.084;2022-09-09T15:30:11;21.20;99.90
17567;DHT22;8901;52.088;5.084;2022-09-09T15:32:39;21.10;99.90
17567;DHT22;8901;52.088;5.084;2022-09-09T15:35:07;20.90;99.90
17567;DHT22;8901;52.088;5.084;2022-09-09T15:37:34;20.90;99.90
17567;DHT22;8901;52.088;5.084;2022-09-09T15:40:01;20.90;99.90
17567;DHT22;8901;52.088;5.084;2022-09-09T15:42:28;21.10;99.90
17567;DHT22;8901;52.088;5.084;2022-09-09T15:44:55;21.20;99.90
17567;DHT22;8901;52.088;5.084;2022-09-09T15:47:22;21.20;99.90
17567;DHT22;8901;52.088;5.084;2022-09-09T15:49:51;21.20;99.90
17567;DHT22;8901;52.088;5.084;2022-09-09T15:52:18;21.40;99.90
17567;DHT22;8901;52.088;5.084;2022-09-09T15:54:45;21.40;99.90
17567;DHT22;8901;52.088;5.084;2022-09-09T15:57:13;21.40;99.90
17567;DHT22;8901;52.088;5.084;2022-09-09T15:59:58;21.30;99.90
17567;DHT22;8901;52.088;5.084;2022-09-09T16:02:28;21.30;99.90
17567;DHT22;8901;52.088;5.084;2022-09-09T16:04:59;21.20;99.90
17567;DHT22;8901;52.088;5.084;2022-09-09T16:07:30;21.10;99.90
17567;DHT22;8901;52.088;5.084;2022-09-09T16:09:57;21.20;99.90
17567;DHT22;8901;52.088;5.084;2022-09-09T16:12:24;21.30;99.90
17567;DHT22;8901;52.088;5.084;2022-09-09T16:14:51;21.30;99.90
17567;DHT22;8901;52.088;5.084;2022-09-09T16:17:18;21.40;99.90
17567;DHT22;8901;52.088;5.084;2022-09-09T16:19:46;21.30;99.90